Terminal Aerodrome Forecast
Issued by NWS

Home | Current Version | Previous Version | Text Only | Print | Product List | Glossary On
Versions: 1 2 3 4 5 6 7 8 9 10 11 12 13 14 15
363
FTUS42 KFFC 090523
TAFPDK
TAF
KPDK 090523Z 0906/1006 30008G16KT P6SM SCT050 BKN070
     FM091200 29012G22KT P6SM -SN FEW015 BKN030
     FM092200 30010KT P6SM BKN030
     FM100400 29008KT P6SM BKN040=

USA.gov is the U.S. government's official web portal to all federal, state and local government web resources and services.